Archer, Idaho
Current Conditions -  °F | °C
As of 1:53 PM on Thursday 18 Dec 2014 (Local Time) from KRXE Reporting Station
Overcast Overcast  
Wind Chill: 32°   Ceiling: 3900
Heat Index: 32°   Visibility: 10mi
Dew Point: 29°   Wind: 3mph
Humidity: 88%   Direction: 210°SSW
Pressure: 30.11"   Gusts: NA
Location:  43.7568°N, 111.624°W
Report Text: KRXE 182053Z AUTO 21003KT 10SM OVC039 00/M02 A3011 RMK AO2 SLP225 T00001017 56007
Loading
Personal Weather Stations






























Interactive Weather Map New forecast layout! Learn more

10-Day Weather Forecast

Advertisements
Track Severe Weather on mobile